Time;durP1;ratioP1;P1;durP2;ratioP2;P2;SDS_P1;SDS_P2;PMS_P1;PMS_P2;Temp;Humidity;BMP_temperature;BMP_pressure;BME280_temperature;BME280_humidity;BME280_pressure;Samples;Min_cycle;Max_cycle;Signal;HPM_P1;HPM_P2
2023/12/25 00:00:04;;;;;;;;;;;7.70;99.90;;;;;;5039908;28;19918;-77
2023/12/25 00:02:32;;;;;;;;;;;7.70;99.90;;;;;;5040097;28;20026;-77
2023/12/25 00:04:58;;;;;;;;;;;7.70;99.90;;;;;;5046299;28;19909;-77
2023/12/25 00:07:23;;;;;;;;;;;7.70;99.90;;;;;;5044342;28;19913;-76
2023/12/25 00:09:49;;;;;;;;;;;7.70;99.90;;;;;;5047077;28;19927;-76
2023/12/25 00:12:15;;;;;;;;;;;7.70;99.90;;;;;;5050384;28;19925;-77
2023/12/25 00:14:40;;;;;;;;;;;7.70;99.90;;;;;;5044420;28;19917;-75
2023/12/25 00:17:06;;;;;;;;;;;7.70;99.90;;;;;;5047305;28;19912;-76
2023/12/25 00:19:32;;;;;;;;;;;7.70;99.90;;;;;;5045955;28;19913;-77
2023/12/25 00:21:58;;;;;;;;;;;7.70;99.90;;;;;;5050328;28;19916;-77
2023/12/25 00:24:23;;;;;;;;;;;7.60;99.90;;;;;;5030717;28;19920;-77
2023/12/25 00:26:49;;;;;;;;;;;7.60;99.90;;;;;;5046338;28;20425;-76
2023/12/25 00:29:14;;;;;;;;;;;7.60;99.90;;;;;;5050047;28;20288;-77
2023/12/25 00:31:40;;;;;;;;;;;7.60;99.90;;;;;;5029658;28;19935;-76
2023/12/25 00:34:06;;;;;;;;;;;7.60;99.90;;;;;;5047788;28;19913;-76
2023/12/25 00:36:31;;;;;;;;;;;7.60;99.90;;;;;;5027118;28;20376;-77
2023/12/25 00:38:57;;;;;;;;;;;7.60;99.90;;;;;;5047266;28;19963;-76
2023/12/25 00:41:27;;;;;;;;;;;7.60;99.90;;;;;;5042846;28;19917;-76
2023/12/25 00:43:53;;;;;;;;;;;7.60;99.90;;;;;;5042739;28;19927;-76
2023/12/25 00:46:18;;;;;;;;;;;7.60;99.90;;;;;;5048369;28;20030;-76
2023/12/25 00:48:44;;;;;;;;;;;7.60;99.90;;;;;;5026292;28;19920;-77
2023/12/25 00:51:10;;;;;;;;;;;7.60;99.90;;;;;;5048304;28;19921;-77
2023/12/25 00:53:35;;;;;;;;;;;7.60;99.90;;;;;;5047868;28;19936;-77
2023/12/25 00:56:05;;;;;;;;;;;7.60;99.90;;;;;;5045979;28;19916;-77
2023/12/25 00:58:31;;;;;;;;;;;7.60;99.90;;;;;;5045936;28;19928;-76
2023/12/25 01:00:56;;;;;;;;;;;7.60;99.90;;;;;;5043091;28;19909;-77
2023/12/25 01:03:22;;;;;;;;;;;7.60;99.90;;;;;;5028923;28;20395;-77
2023/12/25 01:05:48;;;;;;;;;;;7.60;99.90;;;;;;5028218;28;20027;-77
2023/12/25 01:08:13;;;;;;;;;;;7.60;99.90;;;;;;5024968;28;19943;-77
2023/12/25 01:10:39;;;;;;;;;;;7.60;99.90;;;;;;5046226;28;19935;-76
2023/12/25 01:13:04;;;;;;;;;;;7.60;99.90;;;;;;5045767;28;19927;-76
2023/12/25 01:15:30;;;;;;;;;;;7.60;99.90;;;;;;5040352;28;19922;-76
2023/12/25 01:17:56;;;;;;;;;;;7.50;99.90;;;;;;5028027;28;19999;-76
2023/12/25 01:20:22;;;;;;;;;;;7.50;99.90;;;;;;5042722;28;19913;-77
2023/12/25 01:22:47;;;;;;;;;;;7.50;99.90;;;;;;5025541;28;20035;-76
2023/12/25 01:25:13;;;;;;;;;;;7.50;99.90;;;;;;5025929;28;19979;-76
2023/12/25 01:27:41;;;;;;;;;;;7.50;99.90;;;;;;5048994;28;19917;-77
2023/12/25 01:30:10;;;;;;;;;;;7.50;99.90;;;;;;5026768;28;20332;-76
2023/12/25 01:32:36;;;;;;;;;;;7.50;99.90;;;;;;5013544;28;19956;-76
2023/12/25 01:35:02;;;;;;;;;;;7.50;99.90;;;;;;5025514;28;19964;-76
2023/12/25 01:37:27;;;;;;;;;;;7.50;99.90;;;;;;5045653;28;19970;-76
2023/12/25 01:39:53;;;;;;;;;;;7.50;99.90;;;;;;5026522;28;19912;-78
2023/12/25 01:42:19;;;;;;;;;;;7.50;99.90;;;;;;5026212;28;19990;-78
2023/12/25 01:44:46;;;;;;;;;;;7.50;99.90;;;;;;5024752;28;20022;-77
2023/12/25 01:47:12;;;;;;;;;;;7.50;99.90;;;;;;5044920;28;19924;-78
2023/12/25 01:49:38;;;;;;;;;;;7.50;99.90;;;;;;5026518;28;19924;-78
2023/12/25 01:52:04;;;;;;;;;;;7.50;99.90;;;;;;5043921;28;19917;-78
2023/12/25 01:54:31;;;;;;;;;;;7.50;99.90;;;;;;5028060;28;19921;-78
2023/12/25 01:56:59;;;;;;;;;;;7.50;99.90;;;;;;5011380;28;20000;-78
2023/12/25 01:59:29;;;;;;;;;;;7.50;99.90;;;;;;5031038;28;19928;-78
2023/12/25 02:01:56;;;;;;;;;;;7.50;99.90;;;;;;5013803;28;19925;-77
2023/12/25 02:04:21;;;;;;;;;;;7.50;99.90;;;;;;5054271;28;19924;-78
2023/12/25 02:06:47;;;;;;;;;;;7.50;99.90;;;;;;5051947;28;19916;-78
2023/12/25 02:09:13;;;;;;;;;;;7.50;99.90;;;;;;5050953;28;19913;-77
2023/12/25 02:11:42;;;;;;;;;;;7.50;99.90;;;;;;5049197;28;19921;-78
2023/12/25 02:14:09;;;;;;;;;;;7.50;99.90;;;;;;5036272;28;20280;-78
2023/12/25 02:16:36;;;;;;;;;;;7.50;99.90;;;;;;5033333;28;20282;-78
2023/12/25 02:19:03;;;;;;;;;;;7.50;99.90;;;;;;5028870;28;20555;-78
2023/12/25 02:21:30;;;;;;;;;;;7.50;99.90;;;;;;5023386;28;20011;-78
2023/12/25 02:23:58;;;;;;;;;;;7.50;99.90;;;;;;5047857;28;20466;-77
2023/12/25 02:26:24;;;;;;;;;;;7.50;99.90;;;;;;5049745;28;19979;-77
2023/12/25 02:28:51;;;;;;;;;;;7.50;99.90;;;;;;5031980;28;19920;-77
2023/12/25 02:31:17;;;;;;;;;;;7.50;99.90;;;;;;5043215;28;20399;-78
2023/12/25 02:33:42;;;;;;;;;;;7.50;99.90;;;;;;5030735;28;19913;-77
2023/12/25 02:36:08;;;;;;;;;;;7.40;99.90;;;;;;5050896;28;20308;-77
2023/12/25 02:38:35;;;;;;;;;;;7.50;99.90;;;;;;5029584;28;20300;-77
2023/12/25 02:41:01;;;;;;;;;;;7.50;99.90;;;;;;5027685;28;19918;-77
2023/12/25 02:43:26;;;;;;;;;;;7.50;99.90;;;;;;5026797;28;19917;-77
2023/12/25 02:45:52;;;;;;;;;;;7.50;99.90;;;;;;5051325;28;20272;-77
2023/12/25 02:48:18;;;;;;;;;;;7.50;99.90;;;;;;5027033;28;20328;-77
2023/12/25 02:50:44;;;;;;;;;;;7.50;99.90;;;;;;5024614;28;19924;-77
2023/12/25 02:53:10;;;;;;;;;;;7.50;99.90;;;;;;5026894;28;20304;-77
2023/12/25 02:55:35;;;;;;;;;;;7.50;99.90;;;;;;5020837;28;19917;-77
2023/12/25 02:58:01;;;;;;;;;;;7.50;99.90;;;;;;5045002;28;19924;-77
2023/12/25 03:00:27;;;;;;;;;;;7.50;99.90;;;;;;5031933;28;19923;-77
2023/12/25 03:02:53;;;;;;;;;;;7.50;99.90;;;;;;5024198;28;19924;-77
2023/12/25 03:05:18;;;;;;;;;;;7.50;99.90;;;;;;5033224;28;20296;-77
2023/12/25 03:07:44;;;;;;;;;;;7.50;99.90;;;;;;5047874;28;19939;-77
2023/12/25 03:10:09;;;;;;;;;;;7.50;99.90;;;;;;5045211;28;19986;-77
2023/12/25 03:12:35;;;;;;;;;;;7.50;99.90;;;;;;5030053;28;19920;-77
2023/12/25 03:15:01;;;;;;;;;;;7.50;99.90;;;;;;5043827;28;19944;-78
2023/12/25 03:17:26;;;;;;;;;;;7.50;99.90;;;;;;5033284;28;19912;-77
2023/12/25 03:19:52;;;;;;;;;;;7.50;99.90;;;;;;5049508;28;19956;-78
2023/12/25 03:22:18;;;;;;;;;;;7.50;99.90;;;;;;5030731;28;19959;-77
2023/12/25 03:24:43;;;;;;;;;;;7.50;99.90;;;;;;5048021;28;19921;-77
2023/12/25 03:27:09;;;;;;;;;;;7.50;99.90;;;;;;5027268;28;20071;-78
2023/12/25 03:29:35;;;;;;;;;;;7.50;99.90;;;;;;5045324;28;19913;-77
2023/12/25 03:32:00;;;;;;;;;;;7.50;99.90;;;;;;5045145;28;19928;-77
2023/12/25 03:34:26;;;;;;;;;;;7.50;99.90;;;;;;5025754;28;19917;-77
2023/12/25 03:36:52;;;;;;;;;;;7.50;99.90;;;;;;5050641;28;19921;-77
2023/12/25 03:39:18;;;;;;;;;;;7.50;99.90;;;;;;5050060;28;19923;-77
2023/12/25 03:41:43;;;;;;;;;;;7.50;99.90;;;;;;5034005;28;19917;-77
2023/12/25 03:44:09;;;;;;;;;;;7.50;99.90;;;;;;5052673;28;20016;-77
2023/12/25 03:46:35;;;;;;;;;;;7.50;99.90;;;;;;5049217;28;19979;-77
2023/12/25 03:49:00;;;;;;;;;;;7.50;99.90;;;;;;5053277;28;19916;-77
2023/12/25 03:51:26;;;;;;;;;;;7.50;99.90;;;;;;5032138;28;19952;-77
2023/12/25 03:53:51;;;;;;;;;;;7.50;99.90;;;;;;5055274;28;19928;-77
2023/12/25 03:56:17;;;;;;;;;;;7.50;99.90;;;;;;5049516;28;19912;-77
2023/12/25 03:58:43;;;;;;;;;;;7.50;99.90;;;;;;5050308;28;19917;-78
2023/12/25 04:01:09;;;;;;;;;;;7.50;99.90;;;;;;5034254;28;19920;-77
2023/12/25 04:03:35;;;;;;;;;;;7.50;99.90;;;;;;5051129;28;19920;-77
2023/12/25 04:06:01;;;;;;;;;;;7.50;99.90;;;;;;5032645;28;19917;-76
2023/12/25 04:08:27;;;;;;;;;;;7.50;99.90;;;;;;5032633;28;19943;-76
2023/12/25 04:10:52;;;;;;;;;;;7.50;99.90;;;;;;5027902;28;20392;-77
2023/12/25 04:13:18;;;;;;;;;;;7.50;99.90;;;;;;5049564;28;19918;-77
2023/12/25 04:15:44;;;;;;;;;;;7.50;99.90;;;;;;5024545;28;19939;-76
2023/12/25 04:18:09;;;;;;;;;;;7.50;99.90;;;;;;5045133;28;20223;-77
2023/12/25 04:20:35;;;;;;;;;;;7.50;99.90;;;;;;5049496;28;19917;-77
2023/12/25 04:23:01;;;;;;;;;;;7.50;99.90;;;;;;5051834;28;19917;-76
2023/12/25 04:25:27;;;;;;;;;;;7.50;99.90;;;;;;5028736;28;19917;-76
2023/12/25 04:27:52;;;;;;;;;;;7.50;99.90;;;;;;5024991;28;19944;-78
2023/12/25 04:30:18;;;;;;;;;;;7.50;99.90;;;;;;5030783;28;19963;-77
2023/12/25 04:32:44;;;;;;;;;;;7.50;99.90;;;;;;5027735;28;19925;-77
2023/12/25 04:35:10;;;;;;;;;;;7.50;99.90;;;;;;5023725;28;19967;-77
2023/12/25 04:37:35;;;;;;;;;;;7.50;99.90;;;;;;5046400;28;19917;-77
2023/12/25 04:40:02;;;;;;;;;;;7.50;99.90;;;;;;5032518;28;19916;-76
2023/12/25 04:42:28;;;;;;;;;;;7.40;99.90;;;;;;5027783;28;19913;-77
2023/12/25 04:44:53;;;;;;;;;;;7.50;99.90;;;;;;5030597;28;20093;-77
2023/12/25 04:47:19;;;;;;;;;;;7.40;99.90;;;;;;5044092;28;20693;-76
2023/12/25 04:49:45;;;;;;;;;;;7.50;99.90;;;;;;5025379;28;19971;-77
2023/12/25 04:52:10;;;;;;;;;;;7.40;99.90;;;;;;5027253;28;19925;-77
2023/12/25 04:54:36;;;;;;;;;;;7.50;99.90;;;;;;5046399;28;19917;-76
2023/12/25 04:57:02;;;;;;;;;;;7.40;99.90;;;;;;5029044;28;20357;-76
2023/12/25 04:59:27;;;;;;;;;;;7.40;99.90;;;;;;5023064;28;19920;-77
2023/12/25 05:01:53;;;;;;;;;;;7.40;99.90;;;;;;5027098;28;19928;-76
2023/12/25 05:04:19;;;;;;;;;;;7.40;99.90;;;;;;5031839;28;20020;-78
2023/12/25 05:06:45;;;;;;;;;;;7.40;99.90;;;;;;5030653;28;20011;-77
2023/12/25 05:09:10;;;;;;;;;;;7.50;99.90;;;;;;5034795;28;19924;-79
2023/12/25 05:11:36;;;;;;;;;;;7.40;99.90;;;;;;5027746;28;19921;-76
2023/12/25 05:14:01;;;;;;;;;;;7.50;99.90;;;;;;5038562;28;19952;-76
2023/12/25 05:16:27;;;;;;;;;;;7.50;99.90;;;;;;5047154;28;20377;-76
2023/12/25 05:18:53;;;;;;;;;;;7.50;99.90;;;;;;5046381;28;19968;-76
2023/12/25 05:21:18;;;;;;;;;;;7.50;99.90;;;;;;5048260;28;20274;-77
2023/12/25 05:23:44;;;;;;;;;;;7.50;99.90;;;;;;5047101;28;20406;-77
2023/12/25 05:26:09;;;;;;;;;;;7.50;99.90;;;;;;5042845;28;20112;-77
2023/12/25 05:28:35;;;;;;;;;;;7.50;99.90;;;;;;5043448;28;20383;-76
2023/12/25 05:31:01;;;;;;;;;;;7.50;99.90;;;;;;5038251;28;19924;-76
2023/12/25 05:33:26;;;;;;;;;;;7.50;99.90;;;;;;5047430;28;19992;-76
2023/12/25 05:35:52;;;;;;;;;;;7.50;99.90;;;;;;5042728;28;19924;-76
2023/12/25 05:38:18;;;;;;;;;;;7.50;99.90;;;;;;5043274;28;19921;-76
2023/12/25 05:40:43;;;;;;;;;;;7.50;99.90;;;;;;5047265;28;19924;-76
2023/12/25 05:43:10;;;;;;;;;;;7.50;99.90;;;;;;5044897;28;20339;-75
2023/12/25 05:45:37;;;;;;;;;;;7.50;99.90;;;;;;5020488;28;19912;-76
2023/12/25 05:48:03;;;;;;;;;;;7.50;99.90;;;;;;5044163;28;20000;-78
2023/12/25 05:50:29;;;;;;;;;;;7.50;99.90;;;;;;5048532;28;20023;-76
2023/12/25 05:52:54;;;;;;;;;;;7.50;99.90;;;;;;5046658;28;20410;-76
2023/12/25 05:55:20;;;;;;;;;;;7.50;99.90;;;;;;5045892;28;19924;-75
2023/12/25 05:57:46;;;;;;;;;;;7.50;99.90;;;;;;5045825;28;19913;-76
2023/12/25 06:00:12;;;;;;;;;;;7.50;99.90;;;;;;5048059;28;19919;-76
2023/12/25 06:02:40;;;;;;;;;;;7.50;99.90;;;;;;5043613;28;19929;-75
2023/12/25 06:05:06;;;;;;;;;;;7.50;99.90;;;;;;5041587;28;19998;-75
2023/12/25 06:07:32;;;;;;;;;;;7.50;99.90;;;;;;5039081;28;19913;-77
2023/12/25 06:09:57;;;;;;;;;;;7.50;99.90;;;;;;5046829;28;19952;-75
2023/12/25 06:12:23;;;;;;;;;;;7.50;99.90;;;;;;5047209;28;19921;-75
2023/12/25 06:14:48;;;;;;;;;;;7.50;99.90;;;;;;5042743;28;19921;-77
2023/12/25 06:17:14;;;;;;;;;;;7.50;99.90;;;;;;5029063;28;19917;-76
2023/12/25 06:19:40;;;;;;;;;;;7.50;99.90;;;;;;5043608;28;19917;-76
2023/12/25 06:22:06;;;;;;;;;;;7.50;99.90;;;;;;5029710;28;19917;-75
2023/12/25 06:24:31;;;;;;;;;;;7.50;99.90;;;;;;5042974;28;20343;-76
2023/12/25 06:26:57;;;;;;;;;;;7.50;99.90;;;;;;5025371;28;19921;-76
2023/12/25 06:29:23;;;;;;;;;;;7.50;99.90;;;;;;5047022;28;20015;-76
2023/12/25 06:31:48;;;;;;;;;;;7.50;99.90;;;;;;5045284;28;19920;-76
2023/12/25 06:34:14;;;;;;;;;;;7.50;99.90;;;;;;5031607;28;19953;-75
2023/12/25 06:36:39;;;;;;;;;;;7.50;99.90;;;;;;5044393;28;19923;-76
2023/12/25 06:39:05;;;;;;;;;;;7.50;99.90;;;;;;5045984;28;20377;-76
2023/12/25 06:41:31;;;;;;;;;;;7.50;99.90;;;;;;5046963;28;19923;-76
2023/12/25 06:43:56;;;;;;;;;;;7.50;99.90;;;;;;5014944;28;19954;-76
2023/12/25 06:46:22;;;;;;;;;;;7.50;99.90;;;;;;5047659;28;19917;-75
2023/12/25 06:48:47;;;;;;;;;;;7.50;99.90;;;;;;5047126;28;19952;-75
2023/12/25 06:51:13;;;;;;;;;;;7.60;99.90;;;;;;5045863;28;19913;-75
2023/12/25 06:53:39;;;;;;;;;;;7.50;99.90;;;;;;5044203;28;20253;-76
2023/12/25 06:56:06;;;;;;;;;;;7.50;99.90;;;;;;5046396;28;20476;-75
2023/12/25 06:58:31;;;;;;;;;;;7.50;99.90;;;;;;5049874;28;19909;-76
2023/12/25 07:00:59;;;;;;;;;;;7.60;99.90;;;;;;5046913;28;19917;-75
2023/12/25 07:03:24;;;;;;;;;;;7.60;99.90;;;;;;5045391;28;19947;-75
2023/12/25 07:05:50;;;;;;;;;;;7.50;99.90;;;;;;5039474;28;19924;-75
2023/12/25 07:08:17;;;;;;;;;;;7.60;99.90;;;;;;5043936;28;20389;-76
2023/12/25 07:10:46;;;;;;;;;;;7.50;99.90;;;;;;5040387;28;19921;-76
2023/12/25 07:13:12;;;;;;;;;;;7.50;99.90;;;;;;5042296;28;19917;-76
2023/12/25 07:15:38;;;;;;;;;;;7.60;99.90;;;;;;5049296;28;19913;-75
2023/12/25 07:18:05;;;;;;;;;;;7.60;99.90;;;;;;5047722;28;19927;-75
2023/12/25 07:20:31;;;;;;;;;;;7.50;99.90;;;;;;5046506;28;19932;-75
2023/12/25 07:22:57;;;;;;;;;;;7.50;99.90;;;;;;5047120;28;19921;-76
2023/12/25 07:25:23;;;;;;;;;;;7.50;99.90;;;;;;5051077;28;20111;-75
2023/12/25 07:27:48;;;;;;;;;;;7.50;99.90;;;;;;5034212;28;19924;-76
2023/12/25 07:30:14;;;;;;;;;;;7.50;99.90;;;;;;5049745;28;19920;-76
2023/12/25 07:32:40;;;;;;;;;;;7.50;99.90;;;;;;5046104;28;20317;-76
2023/12/25 07:35:07;;;;;;;;;;;7.50;99.90;;;;;;5049570;28;19920;-75
2023/12/25 07:37:32;;;;;;;;;;;7.50;99.90;;;;;;5051058;28;19944;-76
2023/12/25 07:39:58;;;;;;;;;;;7.50;99.90;;;;;;5053154;28;20371;-76
2023/12/25 07:42:23;;;;;;;;;;;7.50;99.90;;;;;;5049193;28;20011;-76
2023/12/25 07:44:49;;;;;;;;;;;7.50;99.90;;;;;;5049691;28;19917;-76
2023/12/25 07:47:15;;;;;;;;;;;7.50;99.90;;;;;;5031710;28;19917;-76
2023/12/25 07:49:40;;;;;;;;;;;7.50;99.90;;;;;;5052741;28;20245;-76
2023/12/25 07:52:06;;;;;;;;;;;7.60;99.90;;;;;;5049202;28;19927;-76
2023/12/25 07:54:34;;;;;;;;;;;7.50;99.90;;;;;;5052215;28;20460;-76
2023/12/25 07:56:59;;;;;;;;;;;7.50;99.90;;;;;;5051822;28;19964;-76
2023/12/25 07:59:25;;;;;;;;;;;7.50;99.90;;;;;;5050574;28;19917;-76
2023/12/25 08:01:51;;;;;;;;;;;7.50;99.90;;;;;;5041548;28;20593;-76
2023/12/25 08:04:16;;;;;;;;;;;7.50;99.90;;;;;;5047004;28;20373;-76
2023/12/25 08:06:42;;;;;;;;;;;7.60;99.90;;;;;;5049445;28;19924;-76
2023/12/25 08:09:09;;;;;;;;;;;7.60;99.90;;;;;;5052594;28;20003;-77
2023/12/25 08:11:35;;;;;;;;;;;7.60;99.90;;;;;;5031001;28;19928;-77
2023/12/25 08:14:01;;;;;;;;;;;7.60;99.90;;;;;;5050989;28;20403;-76
2023/12/25 08:16:27;;;;;;;;;;;7.60;99.90;;;;;;5037465;28;20323;-76
2023/12/25 08:18:53;;;;;;;;;;;7.70;99.90;;;;;;5052330;28;19921;-76
2023/12/25 08:21:20;;;;;;;;;;;7.60;99.90;;;;;;5055098;28;20051;-77
2023/12/25 08:23:46;;;;;;;;;;;7.60;99.90;;;;;;5052073;28;20444;-77
2023/12/25 08:26:11;;;;;;;;;;;7.60;99.90;;;;;;5053137;28;19999;-77
2023/12/25 08:28:37;;;;;;;;;;;7.60;99.90;;;;;;5040120;28;20007;-76
2023/12/25 08:31:04;;;;;;;;;;;7.60;99.90;;;;;;5051228;28;19947;-76
2023/12/25 08:33:29;;;;;;;;;;;7.60;99.90;;;;;;5048331;28;19974;-76
2023/12/25 08:35:55;;;;;;;;;;;7.60;99.90;;;;;;5048462;28;19921;-76
2023/12/25 08:38:20;;;;;;;;;;;7.70;99.90;;;;;;5048630;28;19925;-76
2023/12/25 08:40:46;;;;;;;;;;;7.70;99.90;;;;;;5030165;28;19927;-77
2023/12/25 08:43:12;;;;;;;;;;;7.70;99.90;;;;;;5052337;28;20004;-76
2023/12/25 08:45:37;;;;;;;;;;;7.70;99.90;;;;;;5050596;28;19979;-76
2023/12/25 08:48:03;;;;;;;;;;;7.60;99.90;;;;;;5051847;28;19921;-76
2023/12/25 08:50:29;;;;;;;;;;;7.70;99.90;;;;;;5049171;28;19917;-76
2023/12/25 08:52:55;;;;;;;;;;;7.70;99.90;;;;;;5048564;28;19928;-77
2023/12/25 08:55:20;;;;;;;;;;;7.70;99.90;;;;;;5048183;28;20649;-76
2023/12/25 08:57:46;;;;;;;;;;;7.70;99.90;;;;;;5050361;28;19917;-77
2023/12/25 09:00:12;;;;;;;;;;;7.70;99.90;;;;;;5051457;28;19917;-75
2023/12/25 09:02:37;;;;;;;;;;;7.70;99.90;;;;;;5046895;28;19924;-76
2023/12/25 09:05:03;;;;;;;;;;;7.80;99.90;;;;;;5031699;28;19921;-76
2023/12/25 09:07:29;;;;;;;;;;;7.80;99.90;;;;;;5050841;28;19917;-75
2023/12/25 09:09:55;;;;;;;;;;;7.80;99.90;;;;;;5029003;28;19913;-76
2023/12/25 09:12:20;;;;;;;;;;;7.80;99.90;;;;;;5032748;28;19925;-76
2023/12/25 09:14:46;;;;;;;;;;;7.80;99.90;;;;;;5045361;28;19910;-78
2023/12/25 09:17:12;;;;;;;;;;;7.80;99.90;;;;;;5044246;28;19948;-77
2023/12/25 09:19:37;;;;;;;;;;;7.80;99.90;;;;;;5053992;28;19920;-77
2023/12/25 09:22:03;;;;;;;;;;;7.80;99.90;;;;;;5030476;28;19956;-76
2023/12/25 09:24:29;;;;;;;;;;;7.80;99.90;;;;;;5048333;28;19917;-76
2023/12/25 09:26:55;;;;;;;;;;;7.90;99.90;;;;;;5048085;28;19921;-76
2023/12/25 09:29:20;;;;;;;;;;;7.90;99.90;;;;;;5048610;28;19920;-76
2023/12/25 09:31:46;;;;;;;;;;;7.90;99.90;;;;;;5047540;28;19924;-77
2023/12/25 09:34:12;;;;;;;;;;;7.90;99.90;;;;;;5048714;28;19917;-77
2023/12/25 09:36:37;;;;;;;;;;;8.00;99.90;;;;;;5054904;28;19983;-77
2023/12/25 09:39:03;;;;;;;;;;;7.90;99.90;;;;;;5015780;28;20015;-77
2023/12/25 09:41:32;;;;;;;;;;;7.90;99.90;;;;;;5043878;28;20555;-77
2023/12/25 09:43:59;;;;;;;;;;;7.90;99.90;;;;;;5047367;28;20443;-75
2023/12/25 09:46:25;;;;;;;;;;;7.90;99.90;;;;;;5041650;28;19919;-76
2023/12/25 09:48:51;;;;;;;;;;;7.90;99.90;;;;;;5046392;28;19920;-76
2023/12/25 09:51:18;;;;;;;;;;;7.90;99.90;;;;;;5048785;28;19924;-76
2023/12/25 09:53:44;;;;;;;;;;;7.90;99.90;;;;;;5050018;28;19921;-75
2023/12/25 09:56:12;;;;;;;;;;;7.80;99.90;;;;;;5046383;28;19963;-76
2023/12/25 09:58:38;;;;;;;;;;;7.90;99.90;;;;;;5048076;28;19925;-77
2023/12/25 10:01:04;;;;;;;;;;;7.90;99.90;;;;;;5047153;28;19932;-76
2023/12/25 10:03:31;;;;;;;;;;;7.90;99.90;;;;;;5046910;28;19924;-77
2023/12/25 10:05:57;;;;;;;;;;;7.90;99.90;;;;;;5024189;28;20400;-76
2023/12/25 10:08:23;;;;;;;;;;;7.80;99.90;;;;;;5026969;28;19925;-76
2023/12/25 10:10:52;;;;;;;;;;;7.90;99.90;;;;;;5048623;28;19917;-76
2023/12/25 10:13:18;;;;;;;;;;;7.90;99.90;;;;;;5044595;28;19927;-76
2023/12/25 10:15:44;;;;;;;;;;;7.90;99.90;;;;;;5046247;28;19924;-75
2023/12/25 10:18:09;;;;;;;;;;;7.90;99.90;;;;;;5044384;28;19912;-76
2023/12/25 10:20:35;;;;;;;;;;;7.80;99.90;;;;;;5028184;28;19917;-76
2023/12/25 10:23:08;;;;;;;;;;;7.90;99.90;;;;;;5045295;28;19928;-77
2023/12/25 10:25:42;;;;;;;;;;;7.90;99.90;;;;;;5050279;28;19916;-78
2023/12/25 10:28:11;;;;;;;;;;;7.90;99.90;;;;;;5050259;28;19936;-77
2023/12/25 10:30:37;;;;;;;;;;;7.90;99.90;;;;;;5049771;28;19982;-78
2023/12/25 10:33:09;;;;;;;;;;;7.90;99.90;;;;;;5044999;28;20047;-77
2023/12/25 10:35:35;;;;;;;;;;;7.90;99.90;;;;;;5030840;28;19917;-78
2023/12/25 10:38:03;;;;;;;;;;;7.80;99.90;;;;;;5049720;28;19921;-78
2023/12/25 10:40:31;;;;;;;;;;;7.80;99.90;;;;;;5050907;28;19954;-78
2023/12/25 10:42:57;;;;;;;;;;;7.80;99.90;;;;;;5048853;28;20112;-78
2023/12/25 10:45:24;;;;;;;;;;;7.80;99.90;;;;;;5046935;28;19925;-78
2023/12/25 10:47:51;;;;;;;;;;;7.80;99.90;;;;;;5049857;28;20293;-77
2023/12/25 10:50:24;;;;;;;;;;;7.80;99.90;;;;;;5051259;28;19917;-78
2023/12/25 10:52:51;;;;;;;;;;;7.80;99.90;;;;;;5042321;28;20012;-76
2023/12/25 10:55:36;;;;;;;;;;;7.80;99.90;;;;;;5047833;28;19916;-78
2023/12/25 10:58:03;;;;;;;;;;;7.80;99.90;;;;;;5048730;28;19917;-77
2023/12/25 11:00:30;;;;;;;;;;;7.80;99.90;;;;;;5040607;28;20385;-78
2023/12/25 11:02:59;;;;;;;;;;;7.80;99.90;;;;;;5026555;28;20357;-78
2023/12/25 11:05:25;;;;;;;;;;;7.80;99.90;;;;;;5044588;28;19952;-77
2023/12/25 11:07:51;;;;;;;;;;;7.80;99.90;;;;;;5043851;28;20277;-77
2023/12/25 11:10:17;;;;;;;;;;;7.70;99.90;;;;;;5043226;28;19919;-77
2023/12/25 11:12:43;;;;;;;;;;;7.70;99.90;;;;;;5046669;28;20297;-77
2023/12/25 11:15:08;;;;;;;;;;;7.80;99.90;;;;;;5044068;28;19913;-77
2023/12/25 11:17:34;;;;;;;;;;;7.70;99.90;;;;;;5029344;28;19940;-78
2023/12/25 11:20:03;;;;;;;;;;;7.80;99.90;;;;;;5049071;28;19913;-77
2023/12/25 11:22:30;;;;;;;;;;;7.80;99.90;;;;;;5046467;28;19917;-77
2023/12/25 11:24:56;;;;;;;;;;;7.80;99.90;;;;;;5049246;28;20368;-78
2023/12/25 11:27:22;;;;;;;;;;;7.70;99.90;;;;;;5041806;28;19913;-77
2023/12/25 11:29:48;;;;;;;;;;;7.80;99.90;;;;;;5046759;28;19920;-77
2023/12/25 11:32:17;;;;;;;;;;;7.80;99.90;;;;;;5050711;28;20006;-78
2023/12/25 11:34:48;;;;;;;;;;;7.80;99.90;;;;;;5045986;28;20113;-78
2023/12/25 11:37:19;;;;;;;;;;;7.80;99.90;;;;;;5040519;28;19916;-77
2023/12/25 11:39:58;;;;;;;;;;;7.80;99.90;;;;;;5043712;28;19913;-78
2023/12/25 11:42:24;;;;;;;;;;;7.70;99.90;;;;;;5048327;28;19920;-77
2023/12/25 11:44:53;;;;;;;;;;;7.70;99.90;;;;;;5045109;28;19920;-78
2023/12/25 11:47:28;;;;;;;;;;;7.80;99.90;;;;;;5046275;28;20257;-77
2023/12/25 11:49:55;;;;;;;;;;;7.80;99.90;;;;;;5049101;28;19912;-77
2023/12/25 11:52:41;;;;;;;;;;;7.80;99.90;;;;;;5045186;28;20474;-77
2023/12/25 11:55:07;;;;;;;;;;;7.80;99.90;;;;;;5038085;28;20324;-77
2023/12/25 11:57:34;;;;;;;;;;;7.80;99.90;;;;;;5038428;28;19912;-77
2023/12/25 11:59:59;;;;;;;;;;;7.80;99.90;;;;;;5045908;28;19909;-78
2023/12/25 12:02:26;;;;;;;;;;;7.90;99.90;;;;;;5043231;28;19936;-77
2023/12/25 12:04:51;;;;;;;;;;;7.90;99.90;;;;;;5027173;28;19921;-77
2023/12/25 12:07:17;;;;;;;;;;;7.90;99.90;;;;;;5047294;28;19924;-78
2023/12/25 12:09:43;;;;;;;;;;;7.90;99.90;;;;;;5047586;28;19921;-77
2023/12/25 12:12:08;;;;;;;;;;;7.90;99.90;;;;;;5048349;28;19962;-77
2023/12/25 12:14:36;;;;;;;;;;;8.00;99.90;;;;;;5041687;28;19963;-77
2023/12/25 12:17:02;;;;;;;;;;;7.90;99.90;;;;;;5045914;28;19912;-78
2023/12/25 12:19:28;;;;;;;;;;;8.00;99.90;;;;;;5046672;28;19967;-76
2023/12/25 12:21:53;;;;;;;;;;;8.00;99.90;;;;;;5047646;28;20413;-77
2023/12/25 12:24:23;;;;;;;;;;;8.00;99.90;;;;;;5048538;28;19916;-77
2023/12/25 12:26:49;;;;;;;;;;;8.00;99.90;;;;;;5040696;28;19913;-77
2023/12/25 12:29:16;;;;;;;;;;;8.00;99.90;;;;;;5031764;28;19917;-77
2023/12/25 12:31:41;;;;;;;;;;;8.10;99.90;;;;;;5044837;28;20016;-77
2023/12/25 12:34:07;;;;;;;;;;;8.00;99.90;;;;;;5045047;28;20130;-77
2023/12/25 12:36:32;;;;;;;;;;;8.00;99.90;;;;;;5050846;28;20379;-77
2023/12/25 12:38:58;;;;;;;;;;;8.00;99.90;;;;;;5047490;28;19921;-76
2023/12/25 12:41:25;;;;;;;;;;;8.00;99.90;;;;;;5044389;28;19917;-76
2023/12/25 12:43:57;;;;;;;;;;;8.00;99.90;;;;;;5050822;28;19921;-76
2023/12/25 12:46:22;;;;;;;;;;;8.00;99.90;;;;;;5048863;28;20440;-76
2023/12/25 12:48:48;;;;;;;;;;;8.00;99.90;;;;;;5030923;28;19925;-77
2023/12/25 12:51:14;;;;;;;;;;;8.00;99.90;;;;;;5035797;28;19913;-78
2023/12/25 12:53:39;;;;;;;;;;;8.00;99.90;;;;;;5047939;28;19980;-77
2023/12/25 12:56:05;;;;;;;;;;;8.00;99.90;;;;;;5051131;28;19917;-77
2023/12/25 12:58:33;;;;;;;;;;;8.00;99.90;;;;;;5049148;28;19944;-77
2023/12/25 13:00:59;;;;;;;;;;;8.00;99.90;;;;;;5045739;28;19924;-77
2023/12/25 13:03:24;;;;;;;;;;;8.00;99.90;;;;;;5051611;28;20003;-77
2023/12/25 13:05:50;;;;;;;;;;;8.00;99.90;;;;;;5035348;28;20494;-78
2023/12/25 13:08:16;;;;;;;;;;;8.00;99.90;;;;;;5050167;28;19920;-77
2023/12/25 13:10:42;;;;;;;;;;;8.00;99.90;;;;;;5046860;28;20353;-78
2023/12/25 13:13:07;;;;;;;;;;;8.00;99.90;;;;;;5050212;28;19963;-77
2023/12/25 13:15:33;;;;;;;;;;;8.00;99.90;;;;;;5047129;28;20399;-77
2023/12/25 13:18:00;;;;;;;;;;;8.00;99.90;;;;;;5052448;28;19917;-78
2023/12/25 13:20:26;;;;;;;;;;;8.00;99.90;;;;;;5050728;28;19921;-78
2023/12/25 13:22:52;;;;;;;;;;;8.00;99.90;;;;;;5028529;28;19958;-77
2023/12/25 13:25:17;;;;;;;;;;;8.00;99.90;;;;;;5045186;28;20014;-78
2023/12/25 13:27:43;;;;;;;;;;;8.00;99.90;;;;;;5043769;28;20079;-78
2023/12/25 13:30:08;;;;;;;;;;;8.00;99.90;;;;;;5048029;28;19974;-78
2023/12/25 13:32:36;;;;;;;;;;;8.00;99.90;;;;;;5053106;28;19925;-77
2023/12/25 13:35:02;;;;;;;;;;;8.00;99.90;;;;;;5048007;28;19921;-78
2023/12/25 13:37:28;;;;;;;;;;;8.10;99.90;;;;;;5044113;28;19913;-78
2023/12/25 13:39:53;;;;;;;;;;;8.00;99.90;;;;;;5044834;28;19948;-78
2023/12/25 13:42:19;;;;;;;;;;;8.00;99.90;;;;;;5049635;28;20384;-78
2023/12/25 13:44:45;;;;;;;;;;;8.10;99.90;;;;;;5049493;28;19944;-78
2023/12/25 13:47:11;;;;;;;;;;;8.10;99.90;;;;;;5030562;28;19921;-78
2023/12/25 13:49:37;;;;;;;;;;;8.10;99.90;;;;;;5049442;28;19974;-77
2023/12/25 13:52:03;;;;;;;;;;;8.10;99.90;;;;;;5046507;28;20596;-78
2023/12/25 13:54:28;;;;;;;;;;;8.00;99.90;;;;;;5044192;28;19913;-77
2023/12/25 13:56:55;;;;;;;;;;;8.00;99.90;;;;;;5043743;28;19917;-77
2023/12/25 13:59:20;;;;;;;;;;;8.10;99.90;;;;;;5047146;28;19948;-77
2023/12/25 14:01:46;;;;;;;;;;;8.10;99.90;;;;;;5047062;28;19955;-77
2023/12/25 14:04:12;;;;;;;;;;;8.00;99.90;;;;;;5046215;28;19917;-77
2023/12/25 14:06:37;;;;;;;;;;;8.00;99.90;;;;;;5050232;28;19917;-78
2023/12/25 14:09:04;;;;;;;;;;;8.00;99.90;;;;;;5043145;28;19963;-78
2023/12/25 14:11:29;;;;;;;;;;;8.00;99.90;;;;;;5045512;28;19913;-77
2023/12/25 14:13:55;;;;;;;;;;;8.00;99.90;;;;;;5050183;28;20381;-77
2023/12/25 14:16:21;;;;;;;;;;;8.00;99.90;;;;;;5049902;28;19912;-78
2023/12/25 14:18:46;;;;;;;;;;;8.00;99.90;;;;;;5024987;28;19923;-78
2023/12/25 14:21:12;;;;;;;;;;;8.00;99.90;;;;;;5051688;28;20424;-78
2023/12/25 14:23:38;;;;;;;;;;;8.00;99.90;;;;;;5046333;28;20011;-77